Back to Top

Language: 

My Weather Underground Personal Weather Station Historical Data with Graphs...

Delerius Weather Station Historical Data
Daily Summary for February 1, 2018 Units:  English    Metric   Both
« Previous Day
Next Day »
Daily Weekly Monthly Yearly Custom
  High: Low: Average:
Temperature: 44.8 °F 35.4 °F 39.6 °F
Dew Point: 36.7 °F 31.4 °F 33.7 °F
Humidity: 91 % 69 % 80 %
Wind Speed: 20.0 mph 3.0 mph 11.3 mph
Wind Gust: 31.0 mph - -
Wind:- - WNW
Pressure: 29.75 in 29.37 in -
Precipitation: 0.00 in    
Historical Graphs
 
 
Tabular Data for February 1, 2018
Time Temperature Dew Point Pressure Wind Wind Speed Wind Gust Humidity Rainfall Rate (Hourly) solar Conditions
00:01 36.3 °F 33.4 °F 29.37 in WNW 7.0 mph 10.0 mph 89 % 0.00 in 0 W/m2
00:07 36.1 °F 33.2 °F 29.37 in WNW 9.0 mph 15.0 mph 89 % 0.00 in 0 W/m2
00:12 36.0 °F 33.0 °F 29.37 in WNW 8.0 mph 12.0 mph 89 % 0.00 in 0 W/m2
00:17 35.8 °F 32.9 °F 29.37 in West 11.0 mph 18.0 mph 89 % 0.00 in 0 W/m2
00:22 35.8 °F 33.1 °F 29.37 in WNW 10.0 mph 14.0 mph 90 % 0.00 in 0 W/m2
00:27 35.8 °F 33.1 °F 29.37 in WNW 9.0 mph 12.0 mph 90 % 0.00 in 0 W/m2
00:32 35.8 °F 33.1 °F 29.38 in WNW 8.0 mph 11.0 mph 90 % 0.00 in 0 W/m2
00:37 36.0 °F 33.3 °F 29.38 in WNW 7.0 mph 10.0 mph 90 % 0.00 in 0 W/m2
00:42 36.0 °F 33.3 °F 29.38 in WNW 9.0 mph 13.0 mph 90 % 0.00 in 0 W/m2
00:47 36.1 °F 33.5 °F 29.39 in WNW 7.0 mph 10.0 mph 90 % 0.00 in 0 W/m2
00:52 36.3 °F 33.9 °F 29.39 in WNW 8.0 mph 14.0 mph 91 % 0.00 in 0 W/m2
00:57 36.7 °F 34.3 °F 29.39 in WNW 9.0 mph 14.0 mph 91 % 0.00 in 0 W/m2
01:02 36.9 °F 34.5 °F 29.39 in WNW 10.0 mph 16.0 mph 91 % 0.00 in 0 W/m2
01:07 37.0 °F 34.7 °F 29.40 in WNW 12.0 mph 18.0 mph 91 % 0.00 in 0 W/m2
01:12 37.0 °F 34.4 °F 29.40 in WNW 9.0 mph 14.0 mph 90 % 0.00 in 0 W/m2
01:17 37.0 °F 34.4 °F 29.40 in WNW 11.0 mph 16.0 mph 90 % 0.00 in 0 W/m2
01:22 37.0 °F 34.4 °F 29.40 in WNW 10.0 mph 16.0 mph 90 % 0.00 in 0 W/m2
01:27 37.0 °F 34.4 °F 29.40 in WNW 10.0 mph 16.0 mph 90 % 0.00 in 0 W/m2
01:32 36.9 °F 34.2 °F 29.41 in NW 8.0 mph 14.0 mph 90 % 0.00 in 0 W/m2
01:37 36.9 °F 34.2 °F 29.40 in WNW 9.0 mph 19.0 mph 90 % 0.00 in 0 W/m2
01:42 36.9 °F 34.2 °F 29.41 in WNW 11.0 mph 16.0 mph 90 % 0.00 in 0 W/m2
01:47 36.9 °F 34.2 °F 29.41 in WNW 10.0 mph 15.0 mph 90 % 0.00 in 0 W/m2
01:52 36.9 °F 34.2 °F 29.41 in NW 9.0 mph 14.0 mph 90 % 0.00 in 0 W/m2
01:57 36.7 °F 34.0 °F 29.42 in WNW 9.0 mph 13.0 mph 90 % 0.00 in 0 W/m2
02:02 36.7 °F 33.7 °F 29.42 in WNW 9.0 mph 15.0 mph 89 % 0.00 in 0 W/m2
02:07 36.7 °F 33.7 °F 29.43 in WNW 10.0 mph 16.0 mph 89 % 0.00 in 0 W/m2
02:12 36.9 °F 33.9 °F 29.43 in WNW 9.0 mph 15.0 mph 89 % 0.00 in 0 W/m2
02:17 36.9 °F 33.9 °F 29.43 in NW 6.0 mph 9.0 mph 89 % 0.00 in 0 W/m2
02:22 36.9 °F 33.9 °F 29.43 in WNW 7.0 mph 12.0 mph 89 % 0.00 in 0 W/m2
02:27 36.7 °F 33.7 °F 29.43 in WNW 6.0 mph 12.0 mph 89 % 0.00 in 0 W/m2
02:32 36.7 °F 33.7 °F 29.43 in WNW 7.0 mph 12.0 mph 89 % 0.00 in 0 W/m2
02:37 36.5 °F 33.6 °F 29.43 in WNW 6.0 mph 8.0 mph 89 % 0.00 in 0 W/m2
02:42 36.3 °F 33.4 °F 29.43 in WNW 4.0 mph 7.0 mph 89 % 0.00 in 0 W/m2
02:47 36.1 °F 33.2 °F 29.43 in WNW 5.0 mph 8.0 mph 89 % 0.00 in 0 W/m2
02:52 36.0 °F 33.0 °F 29.43 in West 6.0 mph 10.0 mph 89 % 0.00 in 0 W/m2
02:57 36.0 °F 33.0 °F 29.43 in WNW 5.0 mph 8.0 mph 89 % 0.00 in 0 W/m2
03:02 35.8 °F 32.9 °F 29.43 in WNW 6.0 mph 10.0 mph 89 % 0.00 in 0 W/m2
03:07 35.8 °F 32.9 °F 29.43 in WNW 3.0 mph 6.0 mph 89 % 0.00 in 0 W/m2
03:12 35.6 °F 32.7 °F 29.43 in NW 4.0 mph 7.0 mph 89 % 0.00 in 0 W/m2
03:17 35.4 °F 32.5 °F 29.43 in NW 6.0 mph 10.0 mph 89 % 0.00 in 0 W/m2
03:22 35.4 °F 32.5 °F 29.43 in NW 8.0 mph 18.0 mph 89 % 0.00 in 0 W/m2
03:27 35.8 °F 32.6 °F 29.43 in WNW 10.0 mph 14.0 mph 88 % 0.00 in 0 W/m2
03:32 35.8 °F 32.6 °F 29.43 in WNW 10.0 mph 14.0 mph 88 % 0.00 in 0 W/m2
03:37 36.0 °F 32.5 °F 29.43 in WNW 11.0 mph 18.0 mph 87 % 0.00 in 0 W/m2
03:43 36.1 °F 32.6 °F 29.42 in WNW 11.0 mph 18.0 mph 87 % 0.00 in 0 W/m2
03:48 36.3 °F 32.8 °F 29.42 in WNW 13.0 mph 20.0 mph 87 % 0.00 in 0 W/m2
03:53 36.5 °F 33.0 °F 29.42 in WNW 13.0 mph 23.0 mph 87 % 0.00 in 0 W/m2
03:58 36.7 °F 33.2 °F 29.43 in WNW 14.0 mph 24.0 mph 87 % 0.00 in 0 W/m2
04:03 36.9 °F 33.4 °F 29.43 in WNW 13.0 mph 22.0 mph 87 % 0.00 in 0 W/m2
04:08 36.9 °F 33.4 °F 29.43 in WNW 13.0 mph 21.0 mph 87 % 0.00 in 0 W/m2
04:13 36.9 °F 33.4 °F 29.44 in WNW 14.0 mph 25.0 mph 87 % 0.00 in 0 W/m2
04:18 36.9 °F 33.4 °F 29.44 in WNW 12.0 mph 18.0 mph 87 % 0.00 in 0 W/m2
04:23 36.9 °F 33.4 °F 29.44 in WNW 13.0 mph 21.0 mph 87 % 0.00 in 0 W/m2
04:28 36.9 °F 33.4 °F 29.45 in WNW 13.0 mph 21.0 mph 87 % 0.00 in 0 W/m2
04:33 36.9 °F 33.4 °F 29.45 in WNW 11.0 mph 14.0 mph 87 % 0.00 in 0 W/m2
04:38 37.0 °F 33.2 °F 29.46 in WNW 10.0 mph 18.0 mph 86 % 0.00 in 0 W/m2
04:43 37.0 °F 33.2 °F 29.46 in WNW 12.0 mph 20.0 mph 86 % 0.00 in 0 W/m2
04:48 37.0 °F 33.2 °F 29.46 in WNW 10.0 mph 16.0 mph 86 % 0.00 in 0 W/m2
04:53 37.0 °F 33.5 °F 29.46 in WNW 9.0 mph 14.0 mph 87 % 0.00 in 0 W/m2
04:58 37.0 °F 33.5 °F 29.46 in WNW 10.0 mph 18.0 mph 87 % 0.00 in 0 W/m2
05:03 37.0 °F 33.5 °F 29.46 in WNW 10.0 mph 14.0 mph 87 % 0.00 in 0 W/m2
05:08 37.0 °F 33.5 °F 29.46 in WNW 12.0 mph 18.0 mph 87 % 0.00 in 0 W/m2
05:13 37.0 °F 33.5 °F 29.46 in WNW 11.0 mph 19.0 mph 87 % 0.00 in 0 W/m2
05:18 37.0 °F 33.5 °F 29.46 in WNW 12.0 mph 21.0 mph 87 % 0.00 in 0 W/m2
05:23 37.2 °F 33.7 °F 29.46 in WNW 11.0 mph 15.0 mph 87 % 0.00 in 0 W/m2
05:28 37.2 °F 33.7 °F 29.47 in WNW 10.0 mph 18.0 mph 87 % 0.00 in 0 W/m2
05:33 37.0 °F 33.5 °F 29.47 in WNW 11.0 mph 18.0 mph 87 % 0.00 in 0 W/m2
05:38 37.0 °F 33.5 °F 29.47 in WNW 11.0 mph 19.0 mph 87 % 0.00 in 0 W/m2
05:43 37.0 °F 33.5 °F 29.47 in WNW 10.0 mph 16.0 mph 87 % 0.00 in 0 W/m2
05:48 37.0 °F 33.5 °F 29.47 in WNW 12.0 mph 19.0 mph 87 % 0.00 in 0 W/m2
05:54 37.0 °F 33.5 °F 29.48 in WNW 10.0 mph 15.0 mph 87 % 0.00 in 0 W/m2
05:59 37.0 °F 33.5 °F 29.47 in WNW 12.0 mph 21.0 mph 87 % 0.00 in 0 W/m2
06:04 37.0 °F 33.5 °F 29.47 in WNW 12.0 mph 19.0 mph 87 % 0.00 in 0 W/m2
06:09 37.0 °F 33.5 °F 29.48 in WNW 12.0 mph 19.0 mph 87 % 0.00 in 0 W/m2
06:14 37.0 °F 33.5 °F 29.48 in WNW 12.0 mph 19.0 mph 87 % 0.00 in 0 W/m2
06:19 37.0 °F 33.5 °F 29.48 in WNW 11.0 mph 18.0 mph 87 % 0.00 in 0 W/m2
06:24 37.0 °F 33.5 °F 29.48 in WNW 11.0 mph 16.0 mph 87 % 0.00 in 0 W/m2
06:29 37.0 °F 33.5 °F 29.49 in WNW 12.0 mph 22.0 mph 87 % 0.00 in 0 W/m2
06:34 37.2 °F 33.7 °F 29.48 in WNW 10.0 mph 19.0 mph 87 % 0.00 in 0 W/m2
06:39 37.2 °F 33.7 °F 29.48 in WNW 11.0 mph 19.0 mph 87 % 0.00 in 0 W/m2
06:44 37.2 °F 33.7 °F 29.49 in WNW 12.0 mph 16.0 mph 87 % 0.00 in 0 W/m2
06:49 37.2 °F 33.7 °F 29.49 in WNW 11.0 mph 21.0 mph 87 % 0.00 in 0 W/m2
06:54 37.4 °F 33.9 °F 29.49 in WNW 12.0 mph 18.0 mph 87 % 0.00 in 0 W/m2
06:59 37.4 °F 33.9 °F 29.49 in WNW 11.0 mph 20.0 mph 87 % 0.00 in 0 W/m2
07:04 37.4 °F 33.9 °F 29.50 in WNW 15.0 mph 26.0 mph 87 % 0.00 in 0 W/m2
07:09 37.6 °F 34.1 °F 29.49 in WNW 14.0 mph 22.0 mph 87 % 0.00 in 0 W/m2
07:14 37.6 °F 34.1 °F 29.49 in WNW 14.0 mph 23.0 mph 87 % 0.00 in 0 W/m2
07:19 37.6 °F 34.1 °F 29.49 in WNW 13.0 mph 22.0 mph 87 % 0.00 in 0 W/m2
07:24 37.4 °F 33.9 °F 29.50 in WNW 10.0 mph 16.0 mph 87 % 0.00 in 0 W/m2
07:29 37.2 °F 33.7 °F 29.50 in WNW 10.0 mph 18.0 mph 87 % 0.00 in 0 W/m2
07:34 37.2 °F 33.7 °F 29.50 in WNW 11.0 mph 18.0 mph 87 % 0.00 in 0 W/m2
07:39 37.2 °F 33.7 °F 29.50 in WNW 12.0 mph 16.0 mph 87 % 0.00 in 0 W/m2
07:44 37.2 °F 33.7 °F 29.51 in WNW 11.0 mph 16.0 mph 87 % 0.00 in 0 W/m2
07:49 37.2 °F 33.7 °F 29.51 in WNW 11.0 mph 18.0 mph 87 % 0.00 in 5 W/m2
07:54 37.2 °F 33.7 °F 29.51 in WNW 12.0 mph 19.0 mph 87 % 0.00 in 7 W/m2
07:59 37.2 °F 33.7 °F 29.52 in WNW 11.0 mph 18.0 mph 87 % 0.00 in 9 W/m2
08:04 37.2 °F 33.7 °F 29.52 in WNW 13.0 mph 19.0 mph 87 % 0.00 in 12 W/m2
08:09 37.2 °F 33.4 °F 29.53 in WNW 12.0 mph 19.0 mph 86 % 0.00 in 14 W/m2
08:14 37.2 °F 33.4 °F 29.53 in WNW 9.0 mph 18.0 mph 86 % 0.00 in 16 W/m2
08:19 37.2 °F 33.4 °F 29.53 in WNW 7.0 mph 13.0 mph 86 % 0.00 in 18 W/m2
08:24 37.2 °F 33.4 °F 29.53 in WNW 11.0 mph 19.0 mph 86 % 0.00 in 21 W/m2
08:29 37.2 °F 33.1 °F 29.53 in West 11.0 mph 18.0 mph 85 % 0.00 in 21 W/m2
08:34 37.2 °F 33.1 °F 29.53 in West 12.0 mph 19.0 mph 85 % 0.00 in 25 W/m2
08:40 37.4 °F 33.3 °F 29.53 in WNW 13.0 mph 19.0 mph 85 % 0.00 in 25 W/m2
08:45 37.6 °F 33.2 °F 29.53 in WNW 12.0 mph 19.0 mph 84 % 0.00 in 26 W/m2
08:50 37.6 °F 33.5 °F 29.53 in WNW 12.0 mph 20.0 mph 85 % 0.00 in 30 W/m2
08:55 37.6 °F 33.5 °F 29.54 in WNW 11.0 mph 16.0 mph 85 % 0.00 in 33 W/m2
09:00 37.8 °F 33.7 °F 29.53 in WNW 10.0 mph 15.0 mph 85 % 0.00 in 42 W/m2
09:05 37.9 °F 33.8 °F 29.53 in WNW 13.0 mph 21.0 mph 85 % 0.00 in 53 W/m2
09:10 37.9 °F 33.8 °F 29.53 in WNW 12.0 mph 21.0 mph 85 % 0.00 in 47 W/m2
09:15 38.1 °F 33.7 °F 29.53 in WNW 14.0 mph 22.0 mph 84 % 0.00 in 47 W/m2
09:20 38.5 °F 34.1 °F 29.53 in WNW 11.0 mph 19.0 mph 84 % 0.00 in 141 W/m2
09:25 38.7 °F 34.2 °F 29.53 in WNW 12.0 mph 20.0 mph 84 % 0.00 in 193 W/m2
09:30 38.8 °F 34.4 °F 29.53 in WNW 13.0 mph 24.0 mph 84 % 0.00 in 178 W/m2
09:35 39.0 °F 34.6 °F 29.53 in WNW 15.0 mph 23.0 mph 84 % 0.00 in 211 W/m2
09:40 39.4 °F 34.9 °F 29.53 in WNW 15.0 mph 24.0 mph 84 % 0.00 in 148 W/m2
09:45 39.6 °F 34.8 °F 29.54 in WNW 18.0 mph 27.0 mph 83 % 0.00 in 220 W/m2
09:50 39.7 °F 35.0 °F 29.54 in WNW 15.0 mph 22.0 mph 83 % 0.00 in 95 W/m2
09:55 39.7 °F 34.7 °F 29.54 in WNW 16.0 mph 24.0 mph 82 % 0.00 in 69 W/m2
10:00 39.7 °F 35.0 °F 29.54 in WNW 17.0 mph 24.0 mph 83 % 0.00 in 236 W/m2
10:05 40.1 °F 35.0 °F 29.54 in WNW 12.0 mph 22.0 mph 82 % 0.00 in 244 W/m2
10:10 40.5 °F 35.4 °F 29.55 in WNW 13.0 mph 19.0 mph 82 % 0.00 in 257 W/m2
10:15 40.6 °F 35.3 °F 29.55 in WNW 14.0 mph 21.0 mph 81 % 0.00 in 262 W/m2
10:20 40.8 °F 35.4 °F 29.55 in WNW 15.0 mph 25.0 mph 81 % 0.00 in 271 W/m2
10:25 40.8 °F 35.4 °F 29.54 in WNW 15.0 mph 27.0 mph 81 % 0.00 in 276 W/m2
10:30 41.2 °F 35.8 °F 29.55 in WNW 13.0 mph 24.0 mph 81 % 0.00 in 290 W/m2
10:35 41.2 °F 35.5 °F 29.54 in WNW 14.0 mph 24.0 mph 80 % 0.00 in 304 W/m2
10:40 41.4 °F 35.7 °F 29.54 in WNW 15.0 mph 24.0 mph 80 % 0.00 in 306 W/m2
10:46 41.4 °F 35.7 °F 29.55 in WNW 16.0 mph 25.0 mph 80 % 0.00 in 311 W/m2
10:51 41.5 °F 35.8 °F 29.55 in WNW 12.0 mph 19.0 mph 80 % 0.00 in 313 W/m2
10:56 41.5 °F 35.5 °F 29.55 in WNW 15.0 mph 23.0 mph 79 % 0.00 in 316 W/m2
11:01 41.7 °F 35.7 °F 29.55 in WNW 14.0 mph 23.0 mph 79 % 0.00 in 323 W/m2
11:06 41.9 °F 35.9 °F 29.55 in WNW 16.0 mph 23.0 mph 79 % 0.00 in 329 W/m2
11:11 42.1 °F 35.7 °F 29.55 in WNW 15.0 mph 26.0 mph 78 % 0.00 in 332 W/m2
11:16 42.3 °F 35.9 °F 29.55 in WNW 13.0 mph 20.0 mph 78 % 0.00 in 336 W/m2
11:21 42.4 °F 36.1 °F 29.55 in WNW 14.0 mph 23.0 mph 78 % 0.00 in 343 W/m2
11:26 42.4 °F 35.7 °F 29.55 in WNW 14.0 mph 22.0 mph 77 % 0.00 in 348 W/m2
11:31 42.6 °F 35.9 °F 29.55 in WNW 15.0 mph 22.0 mph 77 % 0.00 in 352 W/m2
11:36 42.6 °F 35.9 °F 29.55 in WNW 17.0 mph 27.0 mph 77 % 0.00 in 360 W/m2
11:41 42.8 °F 36.1 °F 29.55 in WNW 16.0 mph 24.0 mph 77 % 0.00 in 355 W/m2
11:46 43.0 °F 36.3 °F 29.55 in WNW 13.0 mph 20.0 mph 77 % 0.00 in 360 W/m2
11:51 43.0 °F 35.9 °F 29.55 in NW 15.0 mph 28.0 mph 76 % 0.00 in 362 W/m2
11:56 43.0 °F 35.6 °F 29.56 in WNW 16.0 mph 26.0 mph 75 % 0.00 in 367 W/m2
12:01 43.2 °F 35.8 °F 29.56 in WNW 20.0 mph 31.0 mph 75 % 0.00 in 369 W/m2
12:06 43.2 °F 35.8 °F 29.56 in WNW 16.0 mph 27.0 mph 75 % 0.00 in 373 W/m2
12:11 43.3 °F 35.9 °F 29.56 in WNW 16.0 mph 24.0 mph 75 % 0.00 in 371 W/m2
12:16 43.5 °F 35.8 °F 29.56 in WNW 16.0 mph 24.0 mph 74 % 0.00 in 380 W/m2
12:21 43.5 °F 35.8 °F 29.57 in WNW 19.0 mph 25.0 mph 74 % 0.00 in 376 W/m2
12:26 43.7 °F 35.6 °F 29.57 in WNW 18.0 mph 30.0 mph 73 % 0.00 in 396 W/m2
12:31 43.9 °F 35.8 °F 29.57 in WNW 17.0 mph 28.0 mph 73 % 0.00 in 404 W/m2
12:36 44.1 °F 35.6 °F 29.57 in WNW 20.0 mph 27.0 mph 72 % 0.00 in 462 W/m2
12:41 44.4 °F 36.3 °F 29.57 in WNW 16.0 mph 25.0 mph 73 % 0.00 in 582 W/m2
12:46 44.8 °F 36.3 °F 29.57 in WNW 17.0 mph 25.0 mph 72 % 0.00 in 272 W/m2
12:51 44.6 °F 35.8 °F 29.57 in WNW 19.0 mph 27.0 mph 71 % 0.00 in 236 W/m2
12:56 44.2 °F 35.8 °F 29.57 in WNW 16.0 mph 25.0 mph 72 % 0.00 in 258 W/m2
13:01 44.2 °F 36.1 °F 29.57 in WNW 18.0 mph 25.0 mph 73 % 0.00 in 515 W/m2
13:06 44.8 °F 36.7 °F 29.57 in WNW 16.0 mph 27.0 mph 73 % 0.00 in 369 W/m2
13:11 44.8 °F 36.3 °F 29.57 in WNW 16.0 mph 24.0 mph 72 % 0.00 in 346 W/m2
13:16 44.6 °F 35.8 °F 29.57 in WNW 17.0 mph 26.0 mph 71 % 0.00 in 202 W/m2
13:21 44.4 °F 36.3 °F 29.57 in WNW 13.0 mph 20.0 mph 73 % 0.00 in 190 W/m2
13:27 44.2 °F 36.1 °F 29.58 in WNW 13.0 mph 22.0 mph 73 % 0.00 in 188 W/m2
13:32 44.1 °F 36.0 °F 29.58 in WNW 14.0 mph 24.0 mph 73 % 0.00 in 121 W/m2
13:37 43.9 °F 35.8 °F 29.58 in WNW 13.0 mph 22.0 mph 73 % 0.00 in 83 W/m2
13:42 43.7 °F 36.0 °F 29.58 in WNW 12.0 mph 20.0 mph 74 % 0.00 in 83 W/m2
13:47 43.5 °F 35.8 °F 29.58 in WNW 11.0 mph 15.0 mph 74 % 0.00 in 86 W/m2
13:52 43.3 °F 35.6 °F 29.58 in NW 16.0 mph 24.0 mph 74 % 0.00 in 70 W/m2
13:57 43.2 °F 35.8 °F 29.59 in WNW 15.0 mph 23.0 mph 75 % 0.00 in 51 W/m2
14:02 43.0 °F 35.9 °F 29.59 in NW 11.0 mph 19.0 mph 76 % 0.00 in 46 W/m2
14:07 42.6 °F 36.2 °F 29.59 in WNW 10.0 mph 16.0 mph 78 % 0.00 in 42 W/m2
14:12 42.4 °F 36.1 °F 29.59 in WNW 12.0 mph 18.0 mph 78 % 0.00 in 44 W/m2
14:17 42.4 °F 36.1 °F 29.59 in WNW 10.0 mph 18.0 mph 78 % 0.00 in 54 W/m2
14:22 42.4 °F 36.1 °F 29.59 in WNW 10.0 mph 14.0 mph 78 % 0.00 in 53 W/m2
14:27 42.4 °F 36.1 °F 29.59 in WNW 8.0 mph 16.0 mph 78 % 0.00 in 51 W/m2
14:32 42.4 °F 36.1 °F 29.60 in WNW 10.0 mph 20.0 mph 78 % 0.00 in 49 W/m2
14:37 42.6 °F 35.9 °F 29.60 in WNW 11.0 mph 22.0 mph 77 % 0.00 in 44 W/m2
14:42 42.6 °F 35.9 °F 29.60 in NW 9.0 mph 14.0 mph 77 % 0.00 in 46 W/m2
14:47 42.6 °F 35.6 °F 29.60 in NW 10.0 mph 16.0 mph 76 % 0.00 in 28 W/m2
14:52 42.8 °F 35.1 °F 29.60 in NW 16.0 mph 25.0 mph 74 % 0.00 in 30 W/m2
14:57 43.0 °F 35.3 °F 29.61 in WNW 10.0 mph 20.0 mph 74 % 0.00 in 32 W/m2
15:02 43.0 °F 34.9 °F 29.61 in NW 14.0 mph 24.0 mph 73 % 0.00 in 42 W/m2
15:07 43.0 °F 34.9 °F 29.61 in WNW 10.0 mph 15.0 mph 73 % 0.00 in 49 W/m2
15:12 43.0 °F 34.6 °F 29.62 in NW 15.0 mph 23.0 mph 72 % 0.00 in 51 W/m2
15:17 43.2 °F 34.7 °F 29.62 in NW 11.0 mph 19.0 mph 72 % 0.00 in 44 W/m2
15:22 43.2 °F 34.4 °F 29.62 in NW 11.0 mph 20.0 mph 71 % 0.00 in 39 W/m2
15:27 43.2 °F 34.4 °F 29.62 in WNW 14.0 mph 25.0 mph 71 % 0.00 in 37 W/m2
15:32 43.2 °F 34.4 °F 29.62 in WNW 13.0 mph 22.0 mph 71 % 0.00 in 39 W/m2
15:37 43.2 °F 34.4 °F 29.62 in NW 9.0 mph 18.0 mph 71 % 0.00 in 30 W/m2
15:42 43.2 °F 34.4 °F 29.63 in WNW 14.0 mph 21.0 mph 71 % 0.00 in 28 W/m2
15:47 43.2 °F 34.4 °F 29.63 in WNW 13.0 mph 21.0 mph 71 % 0.00 in 28 W/m2
15:52 43.2 °F 34.4 °F 29.63 in WNW 10.0 mph 16.0 mph 71 % 0.00 in 25 W/m2
15:57 43.0 °F 34.2 °F 29.63 in WNW 11.0 mph 20.0 mph 71 % 0.00 in 32 W/m2
16:02 43.0 °F 34.2 °F 29.63 in NW 9.0 mph 14.0 mph 71 % 0.00 in 26 W/m2
16:07 43.0 °F 33.9 °F 29.64 in NW 10.0 mph 20.0 mph 70 % 0.00 in 28 W/m2
16:12 43.0 °F 33.9 °F 29.64 in NW 11.0 mph 16.0 mph 70 % 0.00 in 26 W/m2
16:17 43.0 °F 33.9 °F 29.64 in NW 9.0 mph 19.0 mph 70 % 0.00 in 25 W/m2
16:22 42.8 °F 33.7 °F 29.64 in NW 10.0 mph 16.0 mph 70 % 0.00 in 30 W/m2
16:27 42.8 °F 33.7 °F 29.65 in NW 12.0 mph 21.0 mph 70 % 0.00 in 16 W/m2
16:32 42.6 °F 33.5 °F 29.65 in NW 11.0 mph 19.0 mph 70 % 0.00 in 9 W/m2
16:37 42.6 °F 33.2 °F 29.65 in WNW 10.0 mph 15.0 mph 69 % 0.00 in 7 W/m2
16:42 42.6 °F 33.2 °F 29.65 in WNW 13.0 mph 20.0 mph 69 % 0.00 in 5 W/m2
16:47 42.6 °F 33.2 °F 29.66 in WNW 11.0 mph 22.0 mph 69 % 0.00 in 5 W/m2
16:53 42.4 °F 33.0 °F 29.66 in NW 11.0 mph 23.0 mph 69 % 0.00 in 0 W/m2
16:58 42.4 °F 33.0 °F 29.66 in NW 12.0 mph 21.0 mph 69 % 0.00 in 0 W/m2
17:03 42.4 °F 33.0 °F 29.66 in NW 13.0 mph 21.0 mph 69 % 0.00 in 0 W/m2
17:08 42.3 °F 32.8 °F 29.67 in NW 10.0 mph 20.0 mph 69 % 0.00 in 0 W/m2
17:13 42.3 °F 33.2 °F 29.67 in WNW 10.0 mph 16.0 mph 70 % 0.00 in 0 W/m2
17:18 42.3 °F 32.8 °F 29.67 in NW 13.0 mph 21.0 mph 69 % 0.00 in 0 W/m2
17:23 42.1 °F 33.0 °F 29.67 in WNW 9.0 mph 14.0 mph 70 % 0.00 in 0 W/m2
17:28 42.1 °F 33.0 °F 29.67 in WNW 10.0 mph 15.0 mph 70 % 0.00 in 0 W/m2
17:33 41.9 °F 32.8 °F 29.67 in WNW 10.0 mph 19.0 mph 70 % 0.00 in 0 W/m2
17:38 41.7 °F 32.7 °F 29.67 in WNW 11.0 mph 19.0 mph 70 % 0.00 in 0 W/m2
17:43 41.7 °F 32.7 °F 29.68 in WNW 9.0 mph 15.0 mph 70 % 0.00 in 0 W/m2
17:48 41.7 °F 32.7 °F 29.68 in WNW 6.0 mph 11.0 mph 70 % 0.00 in 0 W/m2
17:53 41.5 °F 32.5 °F 29.68 in WNW 8.0 mph 14.0 mph 70 % 0.00 in 0 W/m2
17:58 41.4 °F 32.3 °F 29.69 in WNW 8.0 mph 14.0 mph 70 % 0.00 in 0 W/m2
18:03 41.4 °F 32.3 °F 29.69 in WNW 12.0 mph 20.0 mph 70 % 0.00 in 0 W/m2
18:08 41.4 °F 32.7 °F 29.69 in WNW 11.0 mph 19.0 mph 71 % 0.00 in 0 W/m2
18:13 41.2 °F 32.5 °F 29.69 in WNW 6.0 mph 10.0 mph 71 % 0.00 in 0 W/m2
18:18 41.2 °F 32.5 °F 29.69 in WNW 10.0 mph 16.0 mph 71 % 0.00 in 0 W/m2
18:23 41.2 °F 32.1 °F 29.69 in NW 10.0 mph 21.0 mph 70 % 0.00 in 0 W/m2
18:28 41.0 °F 32.0 °F 29.69 in WNW 11.0 mph 15.0 mph 70 % 0.00 in 0 W/m2
18:33 40.8 °F 32.1 °F 29.70 in WNW 11.0 mph 19.0 mph 71 % 0.00 in 0 W/m2
18:38 40.8 °F 32.1 °F 29.70 in NW 11.0 mph 19.0 mph 71 % 0.00 in 0 W/m2
18:43 40.8 °F 32.1 °F 29.70 in WNW 11.0 mph 21.0 mph 71 % 0.00 in 0 W/m2
18:48 40.8 °F 32.1 °F 29.70 in NW 13.0 mph 20.0 mph 71 % 0.00 in 0 W/m2
18:53 41.0 °F 32.3 °F 29.70 in NW 12.0 mph 18.0 mph 71 % 0.00 in 0 W/m2
18:58 41.2 °F 32.5 °F 29.70 in NW 14.0 mph 22.0 mph 71 % 0.00 in 0 W/m2
19:03 41.2 °F 32.5 °F 29.70 in NW 12.0 mph 19.0 mph 71 % 0.00 in 0 W/m2
19:08 41.2 °F 32.5 °F 29.70 in WNW 12.0 mph 21.0 mph 71 % 0.00 in 0 W/m2
19:13 41.0 °F 32.3 °F 29.70 in WNW 12.0 mph 20.0 mph 71 % 0.00 in 0 W/m2
19:18 40.8 °F 32.1 °F 29.71 in WNW 8.0 mph 12.0 mph 71 % 0.00 in 0 W/m2
19:23 40.6 °F 32.0 °F 29.70 in NW 12.0 mph 24.0 mph 71 % 0.00 in 0 W/m2
19:28 40.6 °F 32.0 °F 29.70 in NW 10.0 mph 19.0 mph 71 % 0.00 in 0 W/m2
19:33 40.5 °F 31.8 °F 29.70 in NW 9.0 mph 19.0 mph 71 % 0.00 in 0 W/m2
19:38 40.3 °F 31.6 °F 29.71 in WNW 8.0 mph 13.0 mph 71 % 0.00 in 0 W/m2
19:44 40.3 °F 32.0 °F 29.71 in WNW 8.0 mph 14.0 mph 72 % 0.00 in 0 W/m2
19:49 40.1 °F 31.8 °F 29.71 in WNW 7.0 mph 13.0 mph 72 % 0.00 in 0 W/m2
19:54 39.9 °F 31.6 °F 29.71 in WNW 9.0 mph 15.0 mph 72 % 0.00 in 0 W/m2
19:59 39.9 °F 31.6 °F 29.71 in WNW 9.0 mph 18.0 mph 72 % 0.00 in 0 W/m2
20:04 39.9 °F 31.6 °F 29.71 in WNW 10.0 mph 16.0 mph 72 % 0.00 in 0 W/m2
20:09 39.7 °F 31.4 °F 29.71 in NW 9.0 mph 15.0 mph 72 % 0.00 in 0 W/m2
20:14 39.7 °F 31.8 °F 29.71 in WNW 8.0 mph 14.0 mph 73 % 0.00 in 0 W/m2
20:19 39.7 °F 31.8 °F 29.71 in WNW 11.0 mph 16.0 mph 73 % 0.00 in 0 W/m2
20:24 39.6 °F 31.6 °F 29.71 in WNW 9.0 mph 15.0 mph 73 % 0.00 in 0 W/m2
20:29 39.6 °F 31.6 °F 29.71 in WNW 11.0 mph 20.0 mph 73 % 0.00 in 0 W/m2
20:34 39.4 °F 31.8 °F 29.72 in WNW 9.0 mph 14.0 mph 74 % 0.00 in 0 W/m2
20:39 39.4 °F 31.8 °F 29.72 in WNW 10.0 mph 20.0 mph 74 % 0.00 in 0 W/m2
20:44 39.4 °F 31.8 °F 29.72 in NW 11.0 mph 21.0 mph 74 % 0.00 in 0 W/m2
20:49 39.4 °F 31.8 °F 29.72 in WNW 8.0 mph 18.0 mph 74 % 0.00 in 0 W/m2
20:54 39.4 °F 31.8 °F 29.72 in WNW 11.0 mph 19.0 mph 74 % 0.00 in 0 W/m2
20:59 39.4 °F 31.8 °F 29.73 in NW 9.0 mph 15.0 mph 74 % 0.00 in 0 W/m2
21:04 39.4 °F 31.8 °F 29.73 in WNW 10.0 mph 19.0 mph 74 % 0.00 in 0 W/m2
21:09 39.4 °F 31.8 °F 29.73 in WNW 11.0 mph 19.0 mph 74 % 0.00 in 0 W/m2
21:14 39.6 °F 32.0 °F 29.73 in WNW 9.0 mph 15.0 mph 74 % 0.00 in 0 W/m2
21:19 39.4 °F 31.8 °F 29.73 in WNW 9.0 mph 15.0 mph 74 % 0.00 in 0 W/m2
21:24 39.4 °F 31.8 °F 29.73 in WNW 11.0 mph 19.0 mph 74 % 0.00 in 0 W/m2
21:29 39.4 °F 31.8 °F 29.73 in WNW 8.0 mph 13.0 mph 74 % 0.00 in 0 W/m2
21:34 39.2 °F 31.6 °F 29.73 in WNW 9.0 mph 14.0 mph 74 % 0.00 in 0 W/m2
21:39 39.2 °F 31.6 °F 29.72 in WNW 10.0 mph 19.0 mph 74 % 0.00 in 0 W/m2
21:44 39.0 °F 31.4 °F 29.73 in WNW 9.0 mph 15.0 mph 74 % 0.00 in 0 W/m2
21:49 39.2 °F 31.9 °F 29.72 in WNW 11.0 mph 20.0 mph 75 % 0.00 in 0 W/m2
21:54 39.0 °F 31.8 °F 29.72 in WNW 10.0 mph 20.0 mph 75 % 0.00 in 0 W/m2
21:59 39.0 °F 31.8 °F 29.73 in WNW 11.0 mph 16.0 mph 75 % 0.00 in 0 W/m2
22:04 39.0 °F 31.8 °F 29.73 in WNW 11.0 mph 22.0 mph 75 % 0.00 in 0 W/m2
22:09 39.0 °F 31.8 °F 29.73 in WNW 10.0 mph 18.0 mph 75 % 0.00 in 0 W/m2
22:14 39.0 °F 31.8 °F 29.73 in WNW 13.0 mph 21.0 mph 75 % 0.00 in 0 W/m2
22:19 39.2 °F 31.9 °F 29.73 in WNW 12.0 mph 19.0 mph 75 % 0.00 in 0 W/m2
22:24 39.2 °F 31.9 °F 29.73 in WNW 12.0 mph 19.0 mph 75 % 0.00 in 0 W/m2
22:29 39.2 °F 31.9 °F 29.74 in WNW 10.0 mph 19.0 mph 75 % 0.00 in 0 W/m2
22:34 39.2 °F 31.9 °F 29.74 in WNW 10.0 mph 22.0 mph 75 % 0.00 in 0 W/m2
22:39 39.0 °F 31.8 °F 29.74 in WNW 12.0 mph 20.0 mph 75 % 0.00 in 0 W/m2
22:44 39.0 °F 32.1 °F 29.74 in WNW 9.0 mph 14.0 mph 76 % 0.00 in 0 W/m2
22:49 39.0 °F 32.1 °F 29.74 in WNW 10.0 mph 18.0 mph 76 % 0.00 in 0 W/m2
22:54 38.8 °F 32.2 °F 29.74 in WNW 10.0 mph 19.0 mph 77 % 0.00 in 0 W/m2
22:59 38.8 °F 32.2 °F 29.75 in WNW 10.0 mph 16.0 mph 77 % 0.00 in 0 W/m2
23:04 38.8 °F 32.6 °F 29.75 in WNW 9.0 mph 14.0 mph 78 % 0.00 in 0 W/m2
23:09 38.8 °F 32.6 °F 29.75 in WNW 10.0 mph 18.0 mph 78 % 0.00 in 0 W/m2
23:14 38.8 °F 32.6 °F 29.74 in WNW 10.0 mph 15.0 mph 78 % 0.00 in 0 W/m2
23:19 39.0 °F 32.7 °F 29.75 in WNW 10.0 mph 15.0 mph 78 % 0.00 in 0 W/m2
23:24 39.0 °F 32.7 °F 29.74 in WNW 11.0 mph 20.0 mph 78 % 0.00 in 0 W/m2
23:29 39.0 °F 32.7 °F 29.74 in WNW 11.0 mph 18.0 mph 78 % 0.00 in 0 W/m2
23:35 39.0 °F 32.7 °F 29.74 in WNW 11.0 mph 16.0 mph 78 % 0.00 in 0 W/m2
23:40 39.0 °F 32.7 °F 29.75 in WNW 11.0 mph 16.0 mph 78 % 0.00 in 0 W/m2
23:45 39.0 °F 32.7 °F 29.75 in WNW 11.0 mph 19.0 mph 78 % 0.00 in 0 W/m2
23:50 39.0 °F 32.7 °F 29.75 in WNW 12.0 mph 16.0 mph 78 % 0.00 in 0 W/m2
23:55 39.0 °F 32.7 °F 29.75 in WNW 11.0 mph 20.0 mph 78 % 0.00 in 0 W/m2
Delerius-Weather
Compliments of Weather Underground - 2.25 mb

Data updates at regular intervals.